Fort Myers, FL

6:42 AM EDT on October 02, 2014 (GMT -0400)
Page | Change Station
CLOSE
Current Station
Airport
Location: Fort Myers,
Elevation: 16 ft
Nearby Weather Stations

Elev 16 ft 26.58 °N, 81.86 °W | Updated 49 minutes ago

Partly Cloudy
Partly Cloudy
76 °F
Feels Like 76 °F
N
0
Wind Variable Wind from North

Today
High -- | Low -- °F
--% Chance of Precip.
Yesterday
High -- | Low -- °F
Precip. -- in
7:20 AM 7:12 PM
First Quarter, 57% visible
Pressure 29.97 in
Visibility 10.0 miles
Clouds Scattered Clouds 2300 ft
Dew Point 75 °F
Humidity 97%
Rainfall 0.00 in
Snow Depth Not available.
UV 0 out of 12
Pollen 5.40 out of 12
Air Quality Not available.
Flu Activity Not available.
METAR KFMY 020953Z AUTO 00000KT 10SM SCT023 24/24 A2997 RMK AO2 SLP149 T02440239

More Conditions Fewer Conditions

Pressure 29.97 in
Visibility 10.0 miles
Clouds Scattered Clouds 2300 ft
Dew Point 75 °F
Humidity 97%
Rainfall 0.00 in
Snow Depth Not available.
UV 0 out of 12
Pollen 5.40 out of 12
Air Quality Not available.
Flu Activity Not available.
METAR KFMY 020953Z AUTO 00000KT 10SM SCT023 24/24 A2997 RMK AO2 SLP149 T02440239

More Conditions Fewer Conditions

10-Day Weather Forecast

Almanac

Astronomy

Oct. 02, 2014 Rise Set
Actual Time 7:20 AM EDT 7:12 PM EDT
Civil Twilight 6:57 AM EDT 7:35 PM EDT
Nautical Twilight 6:30 AM EDT 8:02 PM EDT
Astronomical Twilight 6:03 AM EDT 8:29 PM EDT
Moon 2:49 PM EDT 1:06 AM EDT
Length of Visible Light 12h 38m
Length of Day
11h 52m
Tomorrow will be 1m 32s shorter.
First Quarter, 57% of the Moon is Illuminated
Today
First Quarter
Oct 8
Full
Oct 15
Last Quarter
Oct 23
New
Oct 30
First Quarter

Today's Extremes

State Highs State Lows

Community

WunderPhotos

Upload Photos

1,758,210 photos uploaded!

WunderBlogs® & News

Nearby

Snow Depth

Station Depth Elevation
No new snow has been reported.

Earthquake Activity

City Distance Mag. Time & Date
No recent earthquake activity has been reported nearby.
Minimum magnitude displayed is 2.5.

Coastal Water Temperatures

Place Temperature
Fort Myers, FL 86.0 °F
Naples, FL 88.0 °F

Nearby Weather Stations